Aérodrome :
LOGIN :

S'inscrire | Disclaimer

   EN    FR    IT 

 










Légende :    VFR   VFR Marginal   IFR   IFR Intensif   IFR Très Intensif
Visi : 
Plafond : 
>= 8 km
>= 3000ft
5 à 8 km
1000 à 3000 ft
1500m à 5 km
500 à 1000 ft
800 à 1500m
200 à 500 ft
< 800m
< 200 ft
Symboles :   Orages  Brouillard  Fortes neiges  Fortes précipitations  Vent > 20 kt
SIGMETs :   Divers  Orages  Givrage  Turbulence  Onde Orograph.  Cendres Volcan.






- Altitude de l'aérodrome : 17 ft
- Code IATA : GRQ


EHGG - Groningen Eelde

DERNIER METAR :
  • 291755Z AUTO 03013KT 360V070 9999 NCD 16/07 Q1026 NOSIG

METARs EXPIRÉS :
  • 291725Z AUTO 04012KT 010V080 9999 NCD 17/06 Q1027 NOSIG
  • 291655Z AUTO 03013KT 360V060 9999 NCD 17/07 Q1027 NOSIG
  • 291625Z AUTO 03014KT 340V070 9999 NCD 17/08 Q1027 NOSIG
  • 291555Z AUTO 04012KT 340V080 9999 NCD 18/09 Q1027 NOSIG
  • 291525Z AUTO 02013KT 340V060 9999 NCD 18/09 Q1027 NOSIG
  • 291455Z AUTO 05014KT 010V080 9999 NCD 19/10 Q1027 NOSIG

TAF TAF EHGG
Valide du 29 à 18h jusqu'au 31 à 00h UTC


291643Z 2918/3024 04013KT CAVOK
BECMG 3001/3004 08006KT
BECMG 3010/3013 05011KT



MET'MAP, la Météo Aéronautique d'un coup d'oeil ! - Copyright ORBIFLY Décembre 2007 - Disclaimer

ORBIFLY MET'MAP TEAM :

Programmation & Développement : Alexandra Zaïnal
Sur une idée originale de : Baudouin d'Aumeries
Assistance à la programmation : Marc-Olivier Méhu
Soutien technique & logistique : Manuel Goepfert

Contact : metmap@orbifly.com




SOURCES & CREDITS :

   NOAA